Terminal Aerodrome Forecast
Issued by NWS

Home | Current Version | Previous Version | Text Only | Print | Product List | Glossary On
Versions: 1 2 3 4 5 6 7 8 9 10 11 12 13 14 15 16 17 18 19 20 21 22
991
FTUS44 KEWX 260352 AAA
TAFSSF
TAF AMD
KSSF 260352Z 2604/2624 14012KT P6SM SCT060
     FM260900 13005KT P6SM BKN020
     FM261500 16008KT P6SM SCT030=

USA.gov is the U.S. government's official web portal to all federal, state and local government web resources and services.